Time;durP1;ratioP1;P1;durP2;ratioP2;P2;SDS_P1;SDS_P2;PMS_P1;PMS_P2;Temp;Humidity;BMP_temperature;BMP_pressure;BME280_temperature;BME280_humidity;BME280_pressure;Samples;Min_cycle;Max_cycle;Signal;HPM_P1;HPM_P2
2022/12/03 00:02:05;;;;;;;13.07;8.90;;;;;;;5.60;78.81;100544.81;5023065;28;20469;-75
2022/12/03 00:04:30;;;;;;;14.40;9.90;;;;;;;5.61;79.13;100554.56;5027448;28;20442;-75
2022/12/03 00:06:55;;;;;;;15.03;10.20;;;;;;;5.63;78.68;100549.81;5032526;28;20406;-75
2022/12/03 00:09:20;;;;;;;13.87;9.50;;;;;;;5.65;79.03;100548.56;5029262;28;20396;-75
2022/12/03 00:11:46;;;;;;;16.53;9.97;;;;;;;5.65;78.50;100548.56;5032573;28;20395;-75
2022/12/03 00:14:11;;;;;;;14.07;9.67;;;;;;;5.67;78.68;100543.78;5022992;28;20416;-75
2022/12/03 00:16:37;;;;;;;15.23;9.30;;;;;;;5.67;78.71;100541.09;5021434;28;20414;-75
2022/12/03 00:19:02;;;;;;;14.85;9.50;;;;;;;5.68;78.31;100552.69;5030560;28;20453;-75
2022/12/03 00:21:27;;;;;;;14.60;9.33;;;;;;;5.71;78.62;100542.34;5031828;28;21020;-75
2022/12/03 00:23:52;;;;;;;13.63;9.13;;;;;;;5.73;78.29;100544.78;5031643;28;20410;-75
2022/12/03 00:26:18;;;;;;;15.80;9.40;;;;;;;5.73;78.69;100536.72;5017307;28;20394;-75
2022/12/03 00:28:43;;;;;;;14.77;9.33;;;;;;;5.73;78.46;100544.78;5009673;28;20418;-75
2022/12/03 00:31:08;;;;;;;11.77;8.73;;;;;;;5.74;78.54;100539.22;5032010;28;20454;-75
2022/12/03 00:33:34;;;;;;;14.17;9.40;;;;;;;5.76;78.67;100542.50;5023998;28;20903;-75
2022/12/03 00:35:59;;;;;;;13.47;9.10;;;;;;;5.78;78.40;100545.00;4997397;28;20406;-75
2022/12/03 00:38:24;;;;;;;15.07;9.07;;;;;;;5.79;78.84;100540.44;5017804;28;20411;-75
2022/12/03 00:40:49;;;;;;;13.13;9.00;;;;;;;5.78;78.60;100541.47;5022886;28;20420;-75
2022/12/03 00:43:15;;;;;;;14.95;9.85;;;;;;;5.81;78.43;100549.13;4998893;28;20472;-75
2022/12/03 00:45:40;;;;;;;14.37;9.33;;;;;;;5.81;78.23;100547.25;5026708;28;20407;-75
2022/12/03 00:48:05;;;;;;;12.27;8.77;;;;;;;5.81;78.40;100544.56;5031690;28;20461;-75
2022/12/03 00:50:30;;;;;;;14.40;9.00;;;;;;;5.80;78.31;100547.47;5031586;28;20396;-75
2022/12/03 00:52:56;;;;;;;15.43;9.97;;;;;;;5.77;78.62;100540.66;5031546;28;20417;-75
2022/12/03 00:55:21;;;;;;;14.77;9.15;;;;;;;5.80;78.77;100547.47;5018788;28;20438;-75
2022/12/03 00:57:46;;;;;;;13.43;8.87;;;;;;;5.79;78.45;100543.97;5008646;28;20407;-75
2022/12/03 01:00:12;;;;;;;15.47;9.17;;;;;;;5.80;78.03;100545.59;5017069;28;20407;-75
2022/12/03 01:02:38;;;;;;;12.75;9.02;;;;;;;5.81;78.30;100549.13;5031413;28;20931;-75
2022/12/03 01:05:04;;;;;;;12.63;8.43;;;;;;;5.79;78.56;100543.97;5031322;28;20434;-75
2022/12/03 01:07:29;;;;;;;16.88;9.15;;;;;;;5.81;78.76;100555.31;5030291;28;20420;-75
2022/12/03 01:09:55;;;;;;;13.60;9.70;;;;;;;5.81;78.72;100554.50;5024383;28;20421;-75
2022/12/03 01:12:20;;;;;;;14.67;9.63;;;;;;;5.81;78.94;100543.75;5000108;28;20402;-75
2022/12/03 01:14:45;;;;;;;14.27;8.85;;;;;;;5.83;78.64;100549.75;5020072;28;20395;-75
2022/12/03 01:17:11;;;;;;;15.73;10.00;;;;;;;5.81;79.07;100549.13;5013183;28;20391;-75
2022/12/03 01:19:37;;;;;;;14.57;10.03;;;;;;;5.80;78.70;100548.28;5031247;28;20391;-75
2022/12/03 01:22:02;;;;;;;16.50;10.10;;;;;;;5.81;78.59;100554.50;5030978;28;20451;-75
2022/12/03 01:24:28;;;;;;;18.90;10.77;;;;;;;5.82;78.66;100546.22;5024779;28;20441;-75
2022/12/03 01:26:54;;;;;;;16.90;9.93;;;;;;;5.84;78.81;100556.75;4997638;28;20422;-75
2022/12/03 01:29:20;;;;;;;14.68;9.63;;;;;;;5.85;78.56;100551.19;5022006;28;20395;-75
2022/12/03 01:34:29;;;;;;;14.68;10.10;;;;;;;5.81;78.73;100557.19;5004623;28;20929;-75
2022/12/03 01:36:55;;;;;;;17.17;10.70;;;;;;;5.81;78.69;100554.50;5027855;28;20506;-75
2022/12/03 01:39:21;;;;;;;12.70;9.23;;;;;;;5.85;78.89;100561.13;5018512;28;20441;-75
2022/12/03 01:41:49;;;;;;;15.48;10.38;;;;;;;5.87;79.13;100554.50;5002639;28;20425;-75
2022/12/03 01:44:21;;;;;;;15.43;10.02;;;;;;;5.82;78.95;100558.84;4998687;28;20402;-75
2022/12/03 01:46:48;;;;;;;14.70;9.88;;;;;;;5.81;78.92;100559.88;4999227;28;20403;-75
2022/12/03 01:49:17;;;;;;;13.13;9.80;;;;;;;5.82;78.87;100561.53;5016929;28;20702;-75
2022/12/03 01:51:44;;;;;;;12.73;8.98;;;;;;;5.79;78.66;100557.41;5022322;28;20387;-75
2022/12/03 01:54:29;;;;;;;13.65;9.40;;;;;;;5.79;79.20;100556.59;5014407;28;20497;-75
2022/12/03 01:56:55;;;;;;;14.38;10.23;;;;;;;5.79;78.77;100557.41;5002759;28;20403;-75
2022/12/03 01:59:24;;;;;;;14.02;9.13;;;;;;;5.82;79.27;100567.75;5030606;28;20422;-75
2022/12/03 02:01:50;;;;;;;13.68;9.50;;;;;;;5.83;78.91;100568.59;5030424;28;20414;-75
2022/12/03 02:04:18;;;;;;;12.90;9.13;;;;;;;5.83;79.05;100566.69;5029551;28;20922;-75
2022/12/03 02:06:43;;;;;;;15.50;10.10;;;;;;;5.82;79.37;100562.38;5030511;28;20753;-75
2022/12/03 02:09:12;;;;;;;15.77;10.23;;;;;;;5.84;78.91;100562.97;4995402;28;20445;-75
2022/12/03 02:11:42;;;;;;;14.13;9.93;;;;;;;5.82;79.23;100565.06;5002194;28;20928;-75
2022/12/03 02:14:20;;;;;;;16.67;10.25;;;;;;;5.80;79.29;100563.59;5018472;28;20384;-75
2022/12/03 02:16:46;;;;;;;14.27;9.70;;;;;;;5.78;79.42;100563.81;5032297;28;20406;-75
2022/12/03 02:19:23;;;;;;;14.32;9.60;;;;;;;5.76;79.19;100568.59;5034586;28;20379;-75
2022/12/03 02:22:05;;;;;;;13.77;9.80;;;;;;;5.79;79.69;100557.41;5034464;28;20422;-75
2022/12/03 02:24:51;;;;;;;15.20;10.27;;;;;;;5.81;79.43;100558.03;5005467;28;20410;-75
2022/12/03 02:27:16;;;;;;;14.82;9.52;;;;;;;5.78;79.18;100554.94;5019212;28;20485;-75
2022/12/03 02:29:42;;;;;;;12.70;9.50;;;;;;;5.71;79.08;100553.09;5032069;28;20931;-75
2022/12/03 02:32:07;;;;;;;15.77;10.10;;;;;;;5.67;79.63;100554.53;5033597;28;20390;-75
2022/12/03 02:34:40;;;;;;;15.53;10.00;;;;;;;5.67;79.42;100554.53;5034292;28;20431;-75
2022/12/03 02:37:08;;;;;;;15.07;10.07;;;;;;;5.64;79.42;100554.97;5034266;28;20395;-75
2022/12/03 02:39:37;;;;;;;14.00;9.07;;;;;;;5.66;79.65;100554.75;5014526;28;20472;-75
2022/12/03 02:44:48;;;;;;;15.00;10.35;;;;;;;5.68;79.35;100552.69;5019257;28;20928;-75
2022/12/03 02:47:13;;;;;;;13.53;9.73;;;;;;;5.69;79.05;100546.28;5024031;28;20395;-75
2022/12/03 02:49:39;;;;;;;15.93;9.93;;;;;;;5.73;79.49;100548.31;5032941;28;20387;-75
2022/12/03 02:52:04;;;;;;;13.67;10.17;;;;;;;5.72;79.54;100544.00;5032839;28;20395;-75
2022/12/03 02:54:30;;;;;;;15.47;10.17;;;;;;;5.72;78.94;100546.69;5004172;28;20410;-75
2022/12/03 02:56:55;;;;;;;18.52;10.45;;;;;;;5.72;79.30;100535.94;5020802;28;20387;-75
2022/12/03 02:59:20;;;;;;;14.40;10.60;;;;;;;5.69;79.44;100540.91;5011630;28;20440;-75
2022/12/03 03:01:46;;;;;;;14.63;10.23;;;;;;;5.66;79.43;100536.75;5033693;28;20415;-76
2022/12/03 03:04:12;;;;;;;16.50;10.70;;;;;;;5.65;79.57;100535.09;5034138;28;20395;-75
2022/12/03 03:06:37;;;;;;;15.02;10.27;;;;;;;5.60;79.61;100540.28;5023483;28;20494;-75
2022/12/03 03:09:03;;;;;;;16.98;10.00;;;;;;;5.61;79.78;100538.41;5025927;28;20406;-75
2022/12/03 03:11:28;;;;;;;16.85;10.85;;;;;;;5.63;79.50;100539.06;5025127;28;20399;-75
2022/12/03 03:13:54;;;;;;;15.53;10.23;;;;;;;5.62;79.39;100535.53;5033352;28;20574;-75
2022/12/03 03:16:19;;;;;;;15.87;10.43;;;;;;;5.57;79.57;100534.50;5032155;28;20494;-75
2022/12/03 03:18:44;;;;;;;16.20;10.77;;;;;;;5.50;79.54;100541.78;5015638;28;20422;-75
2022/12/03 03:21:11;;;;;;;16.37;10.27;;;;;;;5.44;79.65;100534.53;5030742;28;20419;-75
2022/12/03 03:23:36;;;;;;;17.42;10.50;;;;;;;5.38;79.68;100536.19;5032186;28;20387;-75
2022/12/03 03:26:08;;;;;;;15.60;10.70;;;;;;;5.36;80.09;100535.59;5017859;28;20436;-75
2022/12/03 03:28:37;;;;;;;15.67;11.40;;;;;;;5.34;79.94;100543.00;5019436;28;20448;-75
2022/12/03 03:31:05;;;;;;;15.52;10.88;;;;;;;5.34;80.23;100540.31;5027327;28;20398;-75
2022/12/03 03:33:31;;;;;;;17.30;11.45;;;;;;;5.38;79.86;100541.56;5009296;28;20421;-75
2022/12/03 03:35:59;;;;;;;13.30;10.00;;;;;;;5.42;80.00;100539.28;5033002;28;20395;-75
2022/12/03 03:38:25;;;;;;;14.73;10.27;;;;;;;5.42;79.85;100541.97;5032998;28;20397;-75
2022/12/03 03:40:52;;;;;;;14.77;10.37;;;;;;;5.43;80.02;100543.63;5015873;28;20446;-75
2022/12/03 03:43:19;;;;;;;17.58;11.30;;;;;;;5.45;79.75;100550.44;5032977;28;20399;-75
2022/12/03 03:45:45;;;;;;;16.38;10.98;;;;;;;5.47;80.02;100540.31;5031217;28;20438;-75
2022/12/03 03:48:11;;;;;;;16.00;10.40;;;;;;;5.47;79.30;100539.47;5008166;28;20556;-75
2022/12/03 03:50:37;;;;;;;16.33;10.70;;;;;;;5.49;79.43;100538.25;5006211;28;20441;-75
2022/12/03 03:53:03;;;;;;;16.83;10.70;;;;;;;5.52;79.50;100531.63;5027305;28;20542;-75
2022/12/03 03:55:29;;;;;;;15.05;10.65;;;;;;;5.52;79.63;100528.94;5013424;28;20391;-75
2022/12/03 03:57:55;;;;;;;16.58;11.52;;;;;;;5.52;79.67;100535.16;5032577;28;20423;-75
2022/12/03 04:00:21;;;;;;;17.53;10.97;;;;;;;5.51;79.36;100528.09;5031449;28;20477;-75
2022/12/03 04:02:46;;;;;;;15.90;11.00;;;;;;;5.49;79.80;100524.81;5016700;28;20426;-75
2022/12/03 04:05:17;;;;;;;16.13;10.53;;;;;;;5.51;79.47;100524.59;5012808;28;20916;-75
2022/12/03 04:07:42;;;;;;;16.95;11.43;;;;;;;5.52;79.21;100527.06;5024416;28;20455;-75
2022/12/03 04:12:55;;;;;;;17.17;10.82;;;;;;;5.55;79.40;100532.03;5032674;28;20457;-75
2022/12/03 04:15:20;;;;;;;18.52;11.18;;;;;;;5.56;79.40;100524.81;5032335;28;20785;-75
2022/12/03 04:18:41;;;;;;;18.27;10.70;;;;;;;5.54;79.41;100525.00;5011053;28;20491;-75
2022/12/03 04:20:31;;;;;;;16.77;11.57;;;;;;;5.53;79.30;100522.53;4999389;28;20442;-75
2022/12/03 04:22:56;;;;;;;17.10;11.37;;;;;;;5.50;79.59;100528.34;4995567;28;20905;-75
2022/12/03 04:30:49;;;;;;;19.90;12.43;;;;;;;5.42;79.33;100528.53;5004753;28;20410;-75
2022/12/03 04:35:58;;;;;;;17.52;11.95;;;;;;;5.43;79.28;100522.13;5007213;28;20513;-75
2022/12/03 04:38:23;;;;;;;17.27;11.33;;;;;;;5.43;79.65;100531.03;5006257;28;20499;-75
2022/12/03 04:41:02;;;;;;;18.87;12.07;;;;;;;5.46;79.14;100527.94;5008683;28;20420;-75
2022/12/03 04:43:28;;;;;;;19.40;12.33;;;;;;;5.48;79.57;100528.53;4998658;28;20775;-75
2022/12/03 04:45:54;;;;;;;18.30;11.70;;;;;;;5.50;79.24;100518.38;5000899;28;20912;-75
2022/12/03 04:48:19;;;;;;;18.90;11.75;;;;;;;5.52;78.81;100523.56;5002952;28;20408;-75
2022/12/03 04:50:44;;;;;;;17.73;11.97;;;;;;;5.55;79.24;100528.50;5000679;28;20407;-75
2022/12/03 04:53:10;;;;;;;17.37;11.97;;;;;;;5.53;79.17;100526.03;4998121;28;20407;-75
2022/12/03 04:55:38;;;;;;;21.10;12.68;;;;;;;5.50;79.07;100525.66;4995541;28;20402;-75
2022/12/03 04:58:05;;;;;;;20.63;11.65;;;;;;;5.52;78.62;100524.38;4991930;28;20402;-73
2022/12/03 05:00:30;;;;;;;19.55;12.75;;;;;;;5.54;78.98;100534.91;4994890;28;20414;-73
2022/12/03 05:02:55;;;;;;;17.25;11.93;;;;;;;5.54;78.87;100519.63;5007046;28;20766;-73
2022/12/03 05:05:20;;;;;;;18.93;12.03;;;;;;;5.55;78.76;100515.06;5001262;28;20401;-73
2022/12/03 05:07:46;;;;;;;22.13;12.80;;;;;;;5.54;78.55;100514.25;5000189;28;20435;-74
2022/12/03 05:10:11;;;;;;;20.13;12.50;;;;;;;5.52;78.84;100510.94;5004700;28;20401;-73
2022/12/03 05:12:37;;;;;;;21.77;13.33;;;;;;;5.52;79.15;100508.25;5005052;28;20434;-73
2022/12/03 05:15:03;;;;;;;18.57;12.43;;;;;;;5.55;79.06;100507.00;5014479;28;20405;-73
2022/12/03 05:17:28;;;;;;;20.70;12.38;;;;;;;5.55;78.74;100502.47;4993320;28;20783;-74
2022/12/03 05:22:37;;;;;;;18.98;11.68;;;;;;;5.58;78.72;100502.03;4990621;28;20405;-73
2022/12/03 05:25:03;;;;;;;23.33;13.10;;;;;;;5.58;78.56;100506.59;4992043;28;20404;-73
2022/12/03 05:27:28;;;;;;;19.23;12.73;;;;;;;5.54;78.57;100505.34;4990760;28;20406;-74
2022/12/03 05:29:54;;;;;;;20.07;13.27;;;;;;;5.54;79.12;100499.97;4993471;28;20845;-73
2022/12/03 05:32:19;;;;;;;21.23;12.40;;;;;;;5.53;78.82;100491.06;4991612;28;20405;-74
2022/12/03 05:34:44;;;;;;;19.77;12.60;;;;;;;5.53;79.02;100488.38;4992485;28;20952;-74
2022/12/03 05:37:10;;;;;;;20.00;13.23;;;;;;;5.47;78.65;100481.19;4990454;28;21402;-73
2022/12/03 05:39:36;;;;;;;21.80;13.20;;;;;;;5.43;78.93;100482.66;4987784;28;20413;-73
2022/12/03 05:45:05;;;;;;;24.08;12.80;;;;;;;5.47;78.84;100491.94;5040266;28;20405;-74
2022/12/03 05:47:31;;;;;;;24.00;13.45;;;;;;;5.49;78.65;100494.41;5042225;28;20417;-74
2022/12/03 05:49:56;;;;;;;22.23;13.40;;;;;;;5.50;78.78;100496.88;5020417;28;20761;-73
2022/12/03 05:52:21;;;;;;;21.80;13.63;;;;;;;5.52;78.53;100494.00;4991900;28;20467;-74
2022/12/03 05:54:47;;;;;;;26.70;15.20;;;;;;;5.52;78.48;100494.00;4998786;28;20403;-74
2022/12/03 05:57:12;;;;;;;21.38;13.27;;;;;;;5.48;78.63;100496.28;5006054;28;21875;-73
2022/12/03 05:59:37;;;;;;;24.23;13.80;;;;;;;5.46;78.60;100500.22;5015396;28;20413;-74
2022/12/03 06:02:03;;;;;;;23.20;13.90;;;;;;;5.43;79.01;100497.94;5009254;28;20418;-73
2022/12/03 06:04:28;;;;;;;29.87;15.40;;;;;;;5.38;78.58;100493.19;5037269;28;20405;-74
2022/12/03 06:06:53;;;;;;;30.23;15.80;;;;;;;5.36;78.51;100494.44;5002972;28;20813;-73
2022/12/03 06:09:19;;;;;;;25.90;14.43;;;;;;;5.31;78.28;100497.75;5007501;28;20853;-74
2022/12/03 06:11:44;;;;;;;27.17;14.53;;;;;;;5.22;78.60;100489.09;5022013;28;20394;-74
2022/12/03 06:14:09;;;;;;;26.10;15.10;;;;;;;5.19;79.21;100492.22;5012543;28;20491;-75
2022/12/03 06:16:34;;;;;;;25.43;15.00;;;;;;;5.17;79.04;100493.47;5012635;28;20482;-74
2022/12/03 06:19:00;;;;;;;27.17;15.07;;;;;;;5.15;78.93;100493.66;5004799;28;20426;-74
2022/12/03 06:21:25;;;;;;;26.83;15.67;;;;;;;5.13;78.92;100485.00;5003091;28;20432;-74
2022/12/03 06:23:50;;;;;;;29.33;15.93;;;;;;;5.11;78.97;100489.72;5006932;28;20479;-73
2022/12/03 06:26:15;;;;;;;29.13;15.47;;;;;;;5.07;79.30;100485.78;5012093;28;20395;-74
2022/12/03 06:28:46;;;;;;;29.35;15.73;;;;;;;5.08;79.17;100487.47;5005703;28;20409;-74
2022/12/03 06:31:12;;;;;;;29.10;15.98;;;;;;;5.04;79.08;100494.28;5011671;28;20476;-74
2022/12/03 06:33:37;;;;;;;31.15;16.55;;;;;;;5.04;79.20;100494.28;5011241;28;20404;-74
2022/12/03 06:36:03;;;;;;;33.50;16.75;;;;;;;5.04;79.40;100490.75;5012576;28;20411;-74
2022/12/03 06:38:28;;;;;;;31.23;15.88;;;;;;;5.01;79.16;100496.53;5012960;28;20876;-74
2022/12/03 06:40:54;;;;;;;28.77;16.67;;;;;;;4.99;79.19;100487.88;5011223;28;20429;-74
2022/12/03 06:43:19;;;;;;;33.60;17.23;;;;;;;4.99;79.29;100501.31;5012050;28;20435;-74
2022/12/03 06:45:44;;;;;;;32.93;18.27;;;;;;;4.97;79.16;100506.88;5005032;28;20435;-74
2022/12/03 06:48:09;;;;;;;34.40;18.50;;;;;;;4.96;79.01;100504.41;5005242;28;20764;-75
2022/12/03 06:50:35;;;;;;;32.07;17.87;;;;;;;4.98;79.41;100510.41;4994857;28;20862;-75
2022/12/03 06:53:00;;;;;;;31.30;16.77;;;;;;;5.00;79.43;100516.41;5008435;28;20399;-74
2022/12/03 06:55:25;;;;;;;35.47;18.67;;;;;;;4.98;79.42;100511.22;5006060;28;20405;-74
2022/12/03 06:57:50;;;;;;;33.40;19.33;;;;;;;4.96;79.11;100513.31;5011736;28;20770;-74
2022/12/03 07:00:16;;;;;;;35.57;18.13;;;;;;;4.95;79.23;100518.88;5004808;28;20409;-74
2022/12/03 07:02:43;;;;;;;35.08;17.98;;;;;;;4.95;79.37;100514.31;5031803;28;20402;-74
2022/12/03 07:05:09;;;;;;;35.55;18.10;;;;;;;4.91;79.19;100512.25;5011522;28;20409;-74
2022/12/03 07:07:34;;;;;;;33.67;18.23;;;;;;;4.94;79.36;100511.88;5007339;28;20683;-74
2022/12/03 07:09:59;;;;;;;33.17;17.73;;;;;;;4.94;79.39;100509.97;5003362;28;20503;-74
2022/12/03 07:12:24;;;;;;;33.27;17.73;;;;;;;4.96;79.07;100512.47;5009945;28;20446;-74
2022/12/03 07:14:50;;;;;;;36.03;18.63;;;;;;;4.92;79.33;100508.53;5006663;28;20410;-74
2022/12/03 07:17:15;;;;;;;40.17;21.67;;;;;;;4.91;79.04;100518.44;5011517;28;20422;-74
2022/12/03 07:19:41;;;;;;;37.80;20.10;;;;;;;4.91;79.30;100523.00;5012278;28;20441;-74
2022/12/03 07:22:06;;;;;;;36.93;20.20;;;;;;;4.86;78.96;100534.38;5005736;28;20453;-74
2022/12/03 07:24:31;;;;;;;42.23;22.30;;;;;;;4.87;79.17;100527.97;5009034;28;20405;-74
2022/12/03 07:26:56;;;;;;;38.10;19.87;;;;;;;4.88;79.16;100526.09;5007541;28;20763;-74
2022/12/03 07:29:22;;;;;;;34.70;19.50;;;;;;;4.87;79.10;100516.41;5005298;28;20498;-74
2022/12/03 07:31:47;;;;;;;34.50;18.27;;;;;;;4.85;79.02;100521.13;5005889;28;20432;-74
2022/12/03 07:34:13;;;;;;;33.87;18.63;;;;;;;4.85;79.08;100513.91;5006655;28;20448;-74
2022/12/03 07:36:40;;;;;;;34.67;17.90;;;;;;;4.86;79.08;100514.75;5011665;28;20403;-74
2022/12/03 07:39:06;;;;;;;34.60;18.33;;;;;;;4.84;79.16;100520.31;5011297;28;20481;-74
2022/12/03 07:41:31;;;;;;;37.70;19.17;;;;;;;4.81;79.01;100517.22;5011366;28;20448;-74
2022/12/03 07:43:56;;;;;;;39.00;19.10;;;;;;;4.83;79.14;100515.16;5009732;28;20484;-74
2022/12/03 07:46:22;;;;;;;40.77;18.77;;;;;;;4.83;78.75;100516.00;5013227;28;20567;-74
2022/12/03 07:48:47;;;;;;;36.03;18.07;;;;;;;4.84;78.96;100517.63;5006512;28;20826;-74
2022/12/03 07:51:12;;;;;;;35.07;18.97;;;;;;;4.84;79.20;100514.13;5009628;28;20983;-73
2022/12/03 07:53:38;;;;;;;36.00;17.70;;;;;;;4.84;79.25;100519.50;5005604;28;20414;-75
2022/12/03 07:56:03;;;;;;;36.97;18.57;;;;;;;4.84;79.10;100528.34;5007923;28;20428;-76
2022/12/03 07:58:29;;;;;;;36.13;18.75;;;;;;;4.88;78.99;100528.78;5006851;28;20488;-75
2022/12/03 08:00:55;;;;;;;36.80;19.88;;;;;;;4.89;78.81;100523.22;5004242;28;20421;-75
2022/12/03 08:03:20;;;;;;;36.33;18.87;;;;;;;4.93;78.82;100529.00;5010637;28;20409;-75
2022/12/03 08:05:45;;;;;;;40.23;20.03;;;;;;;4.99;78.77;100538.91;5009252;28;20432;-75
2022/12/03 08:08:10;;;;;;;37.57;19.20;;;;;;;5.00;78.38;100532.53;5003473;28;20484;-75
2022/12/03 08:10:36;;;;;;;41.70;20.00;;;;;;;5.00;78.39;100527.16;5014638;28;20411;-75
2022/12/03 08:13:03;;;;;;;44.70;20.77;;;;;;;5.04;78.33;100520.31;5006281;28;20423;-75
2022/12/03 08:15:29;;;;;;;36.83;19.58;;;;;;;5.09;78.62;100512.47;5013375;28;20632;-74
2022/12/03 08:17:58;;;;;;;41.33;18.87;;;;;;;5.13;78.34;100519.09;5004865;28;20439;-75
2022/12/03 08:20:28;;;;;;;42.72;19.95;;;;;;;5.14;78.26;100509.97;4999182;28;20456;-75
2022/12/03 08:22:55;;;;;;;41.47;19.90;;;;;;;5.13;78.31;100502.97;5002802;28;20449;-74
2022/12/03 08:25:29;;;;;;;38.95;19.67;;;;;;;5.13;78.12;100505.66;4998859;28;20471;-75
2022/12/03 08:28:11;;;;;;;36.67;19.85;;;;;;;5.14;78.21;100512.66;5003991;28;20414;-75
2022/12/03 08:30:36;;;;;;;40.30;20.03;;;;;;;5.18;78.63;100495.91;5003592;28;20411;-75
2022/12/03 08:33:15;;;;;;;36.87;19.60;;;;;;;5.22;78.65;100501.72;5023415;28;20400;-74
2022/12/03 08:35:47;;;;;;;37.10;19.67;;;;;;;5.19;78.49;100502.13;5030875;28;20403;-74
2022/12/03 08:38:12;;;;;;;34.08;18.52;;;;;;;5.18;78.67;100497.78;4997103;28;20900;-74
2022/12/03 08:40:41;;;;;;;36.80;20.13;;;;;;;5.22;78.58;100505.22;5012241;28;20407;-74
2022/12/03 08:43:27;;;;;;;38.97;19.98;;;;;;;5.28;78.31;100497.34;5031745;28;20394;-75
2022/12/03 08:45:56;;;;;;;37.42;19.75;;;;;;;5.28;77.82;100492.81;5006890;28;20744;-75
2022/12/03 08:48:26;;;;;;;40.45;20.92;;;;;;;5.27;77.83;100493.81;5017318;28;20786;-74
2022/12/03 08:50:53;;;;;;;38.88;20.95;;;;;;;5.31;77.97;100489.69;5031702;28;20773;-74
2022/12/03 08:53:45;;;;;;;39.25;20.83;;;;;;;5.32;78.04;100496.72;5029327;28;20399;-75
2022/12/03 08:56:10;;;;;;;41.08;20.70;;;;;;;5.34;78.11;100504.56;5022490;28;20403;-74
2022/12/03 08:58:42;;;;;;;40.43;21.03;;;;;;;5.35;77.85;100503.53;5020895;28;21036;-74
2022/12/03 09:01:07;;;;;;;38.95;20.33;;;;;;;5.38;77.98;100508.50;5006984;28;20415;-75
2022/12/03 09:03:32;;;;;;;39.60;20.57;;;;;;;5.40;77.90;100514.50;5004182;28;20407;-74
2022/12/03 09:05:57;;;;;;;41.50;20.53;;;;;;;5.42;77.62;100513.25;5023439;28;20458;-75
2022/12/03 09:08:23;;;;;;;36.67;20.67;;;;;;;5.45;77.51;100502.06;5006632;28;20830;-75
2022/12/03 09:10:48;;;;;;;36.33;20.10;;;;;;;5.50;77.76;100496.09;5018144;28;20410;-74
2022/12/03 09:13:13;;;;;;;41.17;20.90;;;;;;;5.52;76.93;100494.00;5013665;28;20418;-75
2022/12/03 09:15:39;;;;;;;37.70;19.97;;;;;;;5.53;76.86;100490.28;5021381;28;20723;-75
2022/12/03 09:18:04;;;;;;;40.57;20.20;;;;;;;5.57;76.91;100497.69;5001917;28;20815;-75
2022/12/03 09:20:29;;;;;;;38.33;19.50;;;;;;;5.62;76.62;100494.38;5006835;28;20950;-74
2022/12/03 09:22:55;;;;;;;42.03;21.77;;;;;;;5.59;76.68;100501.00;5009313;28;20396;-75
2022/12/03 09:25:20;;;;;;;55.20;27.40;;;;;;;5.58;77.32;100502.03;4994628;28;20407;-75
2022/12/03 09:27:45;;;;;;;37.97;19.97;;;;;;;5.63;77.43;100506.78;5002773;28;20975;-74
2022/12/03 09:30:11;;;;;;;39.10;20.93;;;;;;;5.65;77.02;100499.34;5006045;28;20877;-74
2022/12/03 09:32:36;;;;;;;40.85;20.15;;;;;;;5.68;76.60;100497.03;4997267;28;20402;-74
2022/12/03 09:35:01;;;;;;;41.87;21.20;;;;;;;5.73;76.46;100502.59;5014745;28;20457;-75
2022/12/03 09:37:26;;;;;;;44.80;21.23;;;;;;;5.73;76.47;100497.22;5016867;28;20473;-74
2022/12/03 09:39:52;;;;;;;38.37;20.90;;;;;;;5.73;76.60;100505.28;5013121;28;20758;-75
2022/12/03 09:42:17;;;;;;;45.13;21.53;;;;;;;5.78;76.69;100504.66;5021639;28;20447;-74
2022/12/03 09:44:43;;;;;;;43.03;21.20;;;;;;;5.73;76.70;100502.59;5013036;28;20451;-74
2022/12/03 09:47:08;;;;;;;39.83;20.33;;;;;;;5.78;76.46;100501.97;5006286;28;20813;-75
2022/12/03 09:49:37;;;;;;;44.40;21.43;;;;;;;5.83;76.47;100501.34;5020885;28;20383;-75
2022/12/03 09:52:04;;;;;;;41.35;21.33;;;;;;;5.86;76.53;100499.06;5023774;28;20401;-74
2022/12/03 09:54:31;;;;;;;42.33;22.58;;;;;;;5.89;76.57;100495.97;5024009;28;20669;-74
2022/12/03 09:56:59;;;;;;;38.00;20.85;;;;;;;5.90;76.49;100492.22;5006938;28;20740;-74
2022/12/03 09:59:33;;;;;;;39.97;21.48;;;;;;;5.93;76.54;100485.63;5013087;28;20390;-75
2022/12/03 10:01:59;;;;;;;44.30;22.52;;;;;;;5.95;76.36;100489.72;5021609;28;20421;-74
2022/12/03 10:04:26;;;;;;;41.13;21.38;;;;;;;5.99;76.74;100480.19;5009845;28;20792;-74
2022/12/03 10:06:52;;;;;;;41.83;22.42;;;;;;;6.03;76.31;100469.81;5022877;28;20864;-75
2022/12/03 10:09:24;;;;;;;39.70;21.93;;;;;;;6.08;76.55;100464.63;5013757;28;20414;-75
2022/12/03 10:11:50;;;;;;;39.45;22.13;;;;;;;6.11;76.18;100462.34;5026676;28;20607;-75
2022/12/03 10:14:17;;;;;;;40.03;21.27;;;;;;;6.11;75.92;100462.34;5028477;28;21007;-74
2022/12/03 10:16:43;;;;;;;42.92;21.52;;;;;;;6.14;76.07;100455.69;5025679;28;20395;-74
2022/12/03 10:19:18;;;;;;;44.70;23.25;;;;;;;6.17;76.08;100452.56;5045538;28;20754;-74
2022/12/03 10:21:43;;;;;;;42.67;22.75;;;;;;;6.21;76.14;100460.00;5000242;28;20426;-74
2022/12/03 10:24:21;;;;;;;47.43;24.20;;;;;;;6.24;75.94;100458.72;5017741;28;20387;-74
2022/12/03 10:26:48;;;;;;;44.65;23.08;;;;;;;6.23;76.26;100455.22;5021575;28;20413;-75
2022/12/03 10:29:34;;;;;;;43.10;21.88;;;;;;;6.26;75.89;100454.78;5011374;28;20424;-74
2022/12/03 10:32:10;;;;;;;43.47;21.90;;;;;;;6.24;76.11;100446.09;5025517;28;20411;-75
2022/12/03 10:34:38;;;;;;;47.75;23.70;;;;;;;6.26;76.05;100451.25;5007755;28;20415;-75
2022/12/03 10:37:12;;;;;;;45.70;22.80;;;;;;;6.35;76.34;100447.28;5003133;28;20413;-74
2022/12/03 10:39:57;;;;;;;44.55;23.38;;;;;;;6.38;75.84;100446.00;5013703;28;20389;-74
2022/12/03 10:42:25;;;;;;;45.03;23.25;;;;;;;6.40;75.92;100449.31;5033708;28;20419;-75
2022/12/03 10:45:26;;;;;;;45.22;22.77;;;;;;;6.44;75.87;100445.97;5033940;28;20414;-74
2022/12/03 10:48:12;;;;;;;45.60;22.38;;;;;;;6.44;75.83;100437.06;5002515;28;20890;-74
2022/12/03 10:50:46;;;;;;;43.80;22.85;;;;;;;6.47;75.53;100442.84;5005483;28;20460;-75
2022/12/03 10:53:11;;;;;;;41.60;21.48;;;;;;;6.49;75.94;100426.44;5005379;28;20429;-75
2022/12/03 10:55:39;;;;;;;46.70;23.57;;;;;;;6.53;75.69;100428.50;5010748;28;21032;-75
2022/12/03 10:58:05;;;;;;;42.22;22.60;;;;;;;6.49;75.53;100424.59;5006617;28;20414;-74
2022/12/03 11:00:35;;;;;;;46.60;22.80;;;;;;;6.52;75.85;100420.66;5024291;28;20448;-74
2022/12/03 11:03:16;;;;;;;44.50;22.88;;;;;;;6.56;75.94;100405.69;5007821;28;20917;-79
2022/12/03 11:05:44;;;;;;;45.03;22.75;;;;;;;6.59;75.66;100406.06;5005012;28;20465;-76
2022/12/03 11:08:23;;;;;;;43.17;23.52;;;;;;;6.64;75.29;100405.44;5001808;28;20515;-78
2022/12/03 11:11:05;;;;;;;45.80;22.73;;;;;;;6.64;75.62;100398.19;5017770;28;20416;-76
2022/12/03 11:13:31;;;;;;;45.38;22.80;;;;;;;6.64;75.20;100402.72;5009331;28;20453;-76
2022/12/03 11:15:56;;;;;;;46.67;24.90;;;;;;;6.64;75.53;100397.34;4993918;28;20410;-76
2022/12/03 11:18:37;;;;;;;45.95;24.55;;;;;;;6.66;75.82;100400.63;5003876;28;20420;-76
2022/12/03 11:21:07;;;;;;;50.83;25.13;;;;;;;6.67;75.90;100392.34;5003066;28;20414;-75
2022/12/03 11:23:44;;;;;;;49.40;24.15;;;;;;;6.66;75.44;100392.56;5011815;28;20449;-75
2022/12/03 11:26:14;;;;;;;45.97;24.38;;;;;;;6.64;75.93;100387.41;5015484;28;20403;-73
2022/12/03 11:28:45;;;;;;;57.38;26.00;;;;;;;6.62;75.42;100386.78;5007916;28;20473;-76
2022/12/03 11:31:45;;;;;;;45.67;22.67;;;;;;;6.66;75.85;100389.88;5005506;28;20884;-76
2022/12/03 11:34:17;;;;;;;46.17;23.42;;;;;;;6.67;75.95;100391.53;5003902;28;20490;-76
2022/12/03 11:37:10;;;;;;;48.83;23.25;;;;;;;6.71;75.54;100384.66;5009124;28;20493;-76
2022/12/03 11:39:50;;;;;;;49.92;24.58;;;;;;;6.74;75.53;100385.03;5011180;28;20438;-76
2022/12/03 11:42:24;;;;;;;53.58;25.88;;;;;;;6.78;75.44;100386.22;5013492;28;20508;-76
2022/12/03 11:45:09;;;;;;;49.38;23.92;;;;;;;6.78;75.92;100385.41;5028942;28;20403;-75